createdAt,value
2022-07-29T00:01:18.997Z,51.93
2022-07-29T00:03:37.356Z,51.90
2022-07-29T00:06:04.593Z,51.74
2022-07-29T00:08:31.738Z,51.65
2022-07-29T00:10:58.230Z,51.83
2022-07-29T00:13:31.821Z,51.70
2022-07-29T00:15:51.301Z,51.76
2022-07-29T00:18:17.937Z,51.77
2022-07-29T00:20:44.361Z,51.92
2022-07-29T00:23:13.621Z,51.74
2022-07-29T00:25:37.206Z,51.65
2022-07-29T00:28:03.623Z,51.72
2022-07-29T00:30:30.057Z,51.67
2022-07-29T00:32:56.530Z,51.46
2022-07-29T00:35:22.971Z,51.51
2022-07-29T00:37:49.380Z,51.71
2022-07-29T00:40:15.834Z,51.83
2022-07-29T00:42:42.241Z,51.71
2022-07-29T00:45:08.696Z,51.58
2022-07-29T00:47:35.132Z,51.45
2022-07-29T00:50:01.539Z,51.33
2022-07-29T00:52:27.997Z,51.51
2022-07-29T00:54:54.402Z,51.83
2022-07-29T00:57:20.870Z,51.56
2022-07-29T00:59:47.398Z,51.55
2022-07-29T01:02:13.854Z,51.61
2022-07-29T01:04:40.214Z,51.51
2022-07-29T01:07:06.696Z,51.71
2022-07-29T01:09:43.036Z,51.61
2022-07-29T01:11:59.531Z,51.43
2022-07-29T01:14:25.968Z,51.45
2022-07-29T01:16:52.348Z,51.65
2022-07-29T01:19:18.733Z,51.42
2022-07-29T01:21:45.113Z,51.36
2022-07-29T01:24:11.527Z,51.34
2022-07-29T01:26:37.921Z,51.24
2022-07-29T01:29:07.519Z,51.26
2022-07-29T01:31:30.865Z,51.32
2022-07-29T01:33:57.289Z,51.27
2022-07-29T01:36:23.795Z,51.45
2022-07-29T01:38:50.181Z,51.23
2022-07-29T01:41:16.558Z,51.36
2022-07-29T01:43:42.942Z,51.27
2022-07-29T01:46:09.337Z,51.39
2022-07-29T01:48:35.876Z,51.16
2022-07-29T01:51:02.108Z,51.32
2022-07-29T01:53:28.494Z,51.38
2022-07-29T01:55:54.872Z,51.35
2022-07-29T01:58:22.899Z,51.10
2022-07-29T02:00:47.813Z,51.08
2022-07-29T02:03:14.175Z,51.29
2022-07-29T02:05:40.686Z,51.26
2022-07-29T02:08:08.077Z,50.73
2022-07-29T02:10:33.472Z,50.24
2022-07-29T02:12:59.859Z,49.42
2022-07-29T02:15:26.235Z,49.11
2022-07-29T02:17:52.628Z,49.02
2022-07-29T02:20:19.081Z,48.90
2022-07-29T02:22:45.464Z,48.81
2022-07-29T02:25:13.919Z,48.87
2022-07-29T02:27:38.233Z,48.84
2022-07-29T02:30:04.712Z,48.84
2022-07-29T02:32:32.051Z,48.81
2022-07-29T02:34:57.511Z,48.74
2022-07-29T02:37:23.898Z,48.78
2022-07-29T02:39:50.299Z,48.90
2022-07-29T02:42:16.776Z,48.94
2022-07-29T02:44:43.156Z,49.13
2022-07-29T02:47:09.541Z,49.19
2022-07-29T02:49:35.919Z,49.38
2022-07-29T02:52:02.417Z,49.48
2022-07-29T02:54:28.823Z,49.68
2022-07-29T02:56:55.224Z,49.83
2022-07-29T02:59:21.607Z,50.05
2022-07-29T03:01:49.679Z,50.25
2022-07-29T03:04:14.772Z,50.51
2022-07-29T03:06:40.753Z,50.63
2022-07-29T03:09:12.572Z,50.77
2022-07-29T03:11:44.290Z,50.89
2022-07-29T03:13:59.938Z,51.05
2022-07-29T03:16:26.441Z,51.04
2022-07-29T03:18:52.765Z,51.17
2022-07-29T03:21:19.198Z,51.27
2022-07-29T03:23:45.632Z,51.41
2022-07-29T03:26:12.022Z,51.48
2022-07-29T03:28:38.427Z,51.62
2022-07-29T03:31:04.848Z,51.99
2022-07-29T03:33:31.208Z,52.19
2022-07-29T03:35:57.595Z,52.27
2022-07-29T03:38:23.979Z,52.44
2022-07-29T03:40:50.357Z,52.45
2022-07-29T03:43:16.792Z,52.39
2022-07-29T03:45:43.213Z,52.34
2022-07-29T03:48:09.596Z,52.19
2022-07-29T03:50:36.093Z,52.03
2022-07-29T03:53:02.500Z,51.82
2022-07-29T03:55:28.884Z,51.31
2022-07-29T03:57:55.276Z,50.62
2022-07-29T04:00:21.665Z,50.62
2022-07-29T04:02:48.038Z,50.53
2022-07-29T04:05:14.418Z,50.53
2022-07-29T04:07:40.819Z,50.52
2022-07-29T04:10:07.211Z,50.66
2022-07-29T04:12:35.546Z,50.69
2022-07-29T04:15:00.143Z,50.78
2022-07-29T04:17:26.504Z,50.71
2022-07-29T04:19:52.889Z,50.75
2022-07-29T04:22:20.909Z,50.78
2022-07-29T04:24:47.387Z,50.82
2022-07-29T04:27:13.771Z,50.98
2022-07-29T04:29:56.603Z,51.00
2022-07-29T04:32:06.563Z,51.09
2022-07-29T04:34:32.946Z,51.06
2022-07-29T04:36:59.332Z,51.00
2022-07-29T04:39:25.713Z,51.06
2022-07-29T04:41:52.607Z,52.54
2022-07-29T04:44:19.041Z,51.31
2022-07-29T04:46:44.960Z,51.13
2022-07-29T04:49:11.354Z,51.23
2022-07-29T04:51:37.679Z,51.11
2022-07-29T04:54:04.071Z,51.12
2022-07-29T04:56:30.517Z,50.89
2022-07-29T04:58:56.908Z,50.74
2022-07-29T05:01:23.331Z,50.73
2022-07-29T05:03:51.081Z,50.70
2022-07-29T05:06:16.067Z,50.74
2022-07-29T05:08:42.490Z,50.80
2022-07-29T05:11:12.474Z,50.91
2022-07-29T05:13:45.971Z,50.99
2022-07-29T05:16:01.708Z,51.03
2022-07-29T05:18:28.048Z,51.04
2022-07-29T05:20:54.441Z,50.94
2022-07-29T05:23:20.858Z,50.85
2022-07-29T05:25:47.235Z,50.78
2022-07-29T05:28:13.735Z,50.69
2022-07-29T05:30:40.164Z,50.55
2022-07-29T05:33:06.513Z,50.44
2022-07-29T05:35:32.897Z,50.38
2022-07-29T05:37:59.295Z,50.35
2022-07-29T05:40:25.677Z,50.16
2022-07-29T05:42:52.048Z,50.10
2022-07-29T05:45:18.437Z,50.32
2022-07-29T05:47:44.892Z,50.13
2022-07-29T05:50:11.330Z,50.19
2022-07-29T05:52:37.710Z,50.19
2022-07-29T05:55:04.119Z,50.21
2022-07-29T05:57:30.524Z,50.27
2022-07-29T05:59:59.339Z,50.45
2022-07-29T06:02:25.782Z,50.57
2022-07-29T06:04:52.194Z,50.74
2022-07-29T06:07:18.589Z,50.71
2022-07-29T06:09:44.955Z,50.96
2022-07-29T06:12:11.353Z,51.19
2022-07-29T06:14:37.740Z,51.18
2022-07-29T06:17:04.143Z,51.31
2022-07-29T06:19:30.542Z,51.38
2022-07-29T06:21:56.931Z,51.62
2022-07-29T06:24:23.352Z,51.87
2022-07-29T06:26:49.692Z,51.94
2022-07-29T06:29:16.218Z,52.07
2022-07-29T06:31:43.991Z,52.10
2022-07-29T06:34:08.994Z,52.15
2022-07-29T06:36:35.508Z,52.38
2022-07-29T06:39:02.826Z,52.16
2022-07-29T06:41:28.278Z,52.35
2022-07-29T06:43:56.799Z,52.31
2022-07-29T06:46:21.360Z,52.08
2022-07-29T06:48:47.608Z,52.09
2022-07-29T06:51:13.969Z,52.10
2022-07-29T06:53:59.737Z,51.89
2022-07-29T06:56:06.743Z,51.83
2022-07-29T06:58:33.122Z,51.96
2022-07-29T07:00:59.615Z,51.81
2022-07-29T07:03:25.892Z,51.83
2022-07-29T07:05:52.404Z,51.95
2022-07-29T07:08:18.844Z,51.83
2022-07-29T07:10:45.250Z,52.09
2022-07-29T07:13:11.641Z,52.15
2022-07-29T07:15:39.406Z,52.16
2022-07-29T07:18:04.565Z,52.06
2022-07-29T07:20:30.963Z,52.05
2022-07-29T07:22:57.540Z,52.21
2022-07-29T07:25:23.921Z,52.19
2022-07-29T07:27:50.338Z,52.22
2022-07-29T07:30:16.741Z,52.05
2022-07-29T07:32:43.185Z,52.04
2022-07-29T07:35:09.531Z,52.17
2022-07-29T07:37:35.939Z,52.23
2022-07-29T07:40:02.373Z,52.32
2022-07-29T07:42:28.773Z,51.93
2022-07-29T07:45:12.649Z,51.83
2022-07-29T07:47:21.670Z,51.80
2022-07-29T07:49:48.071Z,51.69
2022-07-29T07:52:14.536Z,51.62
2022-07-29T07:54:40.938Z,51.58
2022-07-29T07:57:07.361Z,51.64
2022-07-29T07:59:33.755Z,51.56
2022-07-29T08:02:00.297Z,51.74
2022-07-29T08:04:28.627Z,51.64
2022-07-29T08:06:52.904Z,51.66
2022-07-29T08:09:29.243Z,51.60
2022-07-29T08:11:51.596Z,51.50
2022-07-29T08:14:12.061Z,51.45
2022-07-29T08:16:38.559Z,51.45
2022-07-29T08:19:04.916Z,51.38
2022-07-29T08:21:31.326Z,51.24
2022-07-29T08:24:01.791Z,51.05
2022-07-29T08:26:24.165Z,51.03
2022-07-29T08:28:50.576Z,51.12
2022-07-29T08:31:17.019Z,51.07
2022-07-29T08:33:43.743Z,50.94
2022-07-29T08:36:10.142Z,50.93
2022-07-29T08:38:36.524Z,50.89
2022-07-29T08:41:02.950Z,50.96
2022-07-29T08:43:29.350Z,50.85
2022-07-29T08:45:55.762Z,50.80
2022-07-29T08:48:22.291Z,50.69
2022-07-29T08:50:48.545Z,50.65
2022-07-29T08:53:14.930Z,50.67
2022-07-29T08:55:42.712Z,50.55
2022-07-29T08:58:07.696Z,50.43
2022-07-29T09:00:34.161Z,50.49
2022-07-29T09:03:00.602Z,50.28
2022-07-29T09:05:27.026Z,50.37
2022-07-29T09:07:53.426Z,50.26
2022-07-29T09:10:19.811Z,50.47
2022-07-29T09:12:46.195Z,50.35
2022-07-29T09:15:12.614Z,50.18
2022-07-29T09:17:39.024Z,50.35
2022-07-29T09:20:05.415Z,50.19
2022-07-29T09:22:31.821Z,50.33
2022-07-29T09:24:58.217Z,50.32
2022-07-29T09:27:24.602Z,50.13
2022-07-29T09:29:50.988Z,50.04
2022-07-29T09:32:17.381Z,50.05
2022-07-29T09:34:43.760Z,49.92
2022-07-29T09:37:10.147Z,49.94
2022-07-29T09:39:36.531Z,49.91
2022-07-29T09:42:03.019Z,49.90
2022-07-29T09:44:29.416Z,49.87
2022-07-29T09:46:56.139Z,49.94
2022-07-29T09:49:22.290Z,49.95
2022-07-29T09:51:48.573Z,49.78
2022-07-29T09:54:14.971Z,49.77
2022-07-29T09:56:41.361Z,49.81
2022-07-29T09:59:07.742Z,50.07
2022-07-29T10:01:34.235Z,49.94
2022-07-29T10:04:00.608Z,49.89
2022-07-29T10:06:27.004Z,49.66
2022-07-29T10:08:53.392Z,49.87
2022-07-29T10:11:19.801Z,50.27
2022-07-29T10:13:46.206Z,50.18
2022-07-29T10:16:14.062Z,50.13
2022-07-29T10:18:39.024Z,50.21
2022-07-29T10:21:05.599Z,50.43
2022-07-29T10:23:46.287Z,50.29
2022-07-29T10:26:00.039Z,50.36
2022-07-29T10:28:24.773Z,50.38
2022-07-29T10:30:51.189Z,50.30
2022-07-29T10:33:17.557Z,50.40
2022-07-29T10:35:43.955Z,50.29
2022-07-29T10:38:13.638Z,50.23
2022-07-29T10:40:36.803Z,50.03
2022-07-29T10:43:03.193Z,49.94
2022-07-29T10:45:29.587Z,49.97
2022-07-29T10:47:55.966Z,50.06
2022-07-29T10:50:22.349Z,50.11
2022-07-29T10:52:48.731Z,50.26
2022-07-29T10:55:15.123Z,50.19
2022-07-29T10:57:53.072Z,50.07
2022-07-29T11:00:07.892Z,49.93
2022-07-29T11:02:41.728Z,49.95
2022-07-29T11:05:00.692Z,49.85
2022-07-29T11:07:27.125Z,49.81
2022-07-29T11:09:53.522Z,49.71
2022-07-29T11:12:19.897Z,49.81
2022-07-29T11:14:46.295Z,49.48
2022-07-29T11:17:14.043Z,49.44
2022-07-29T11:22:05.707Z,49.09
2022-07-29T11:24:32.025Z,49.19
2022-07-29T11:29:24.648Z,49.00
2022-07-29T11:31:51.041Z,48.94
2022-07-29T11:34:18.824Z,49.24
2022-07-29T11:36:43.818Z,49.13
2022-07-29T11:39:10.209Z,49.26
2022-07-29T11:41:36.593Z,49.23
2022-07-29T11:44:03.044Z,49.19
2022-07-29T11:46:29.437Z,49.26
2022-07-29T11:48:55.915Z,49.26
2022-07-29T11:51:32.847Z,49.32
2022-07-29T11:53:48.635Z,49.15
2022-07-29T11:56:16.981Z,49.23
2022-07-29T11:58:41.417Z,49.20
2022-07-29T12:01:09.452Z,49.16
2022-07-29T12:03:35.824Z,49.25
2022-07-29T12:06:00.715Z,49.10
2022-07-29T12:07:01.385Z,48.90
2022-07-29T12:08:27.120Z,49.01
2022-07-29T12:10:53.520Z,48.99
2022-07-29T12:13:19.908Z,48.60
2022-07-29T12:15:47.337Z,48.88
2022-07-29T12:18:12.721Z,48.71
2022-07-29T12:20:39.133Z,48.62
2022-07-29T12:23:05.596Z,48.66
2022-07-29T12:25:33.724Z,48.49
2022-07-29T12:27:58.394Z,48.50
2022-07-29T12:30:24.791Z,48.56
2022-07-29T12:32:51.244Z,48.42
2022-07-29T12:35:17.752Z,48.20
2022-07-29T12:37:44.149Z,48.21
2022-07-29T12:40:10.532Z,48.07
2022-07-29T12:42:36.931Z,48.19
2022-07-29T12:45:03.317Z,48.07
2022-07-29T12:47:29.720Z,48.10
2022-07-29T12:49:56.109Z,48.24
2022-07-29T12:52:22.506Z,48.08
2022-07-29T12:54:48.893Z,48.13
2022-07-29T12:57:20.170Z,48.26
2022-07-29T12:59:41.747Z,48.42
2022-07-29T13:02:08.171Z,48.35
2022-07-29T13:04:34.524Z,48.07
2022-07-29T13:07:00.981Z,48.29
2022-07-29T13:09:27.300Z,48.22
2022-07-29T13:11:53.726Z,48.14
2022-07-29T13:14:20.154Z,48.26
2022-07-29T13:16:46.638Z,48.08
2022-07-29T13:19:12.984Z,48.13
2022-07-29T13:21:41.202Z,48.19
2022-07-29T13:24:05.763Z,48.29
2022-07-29T13:26:32.181Z,48.12
2022-07-29T13:28:58.571Z,48.30
2022-07-29T13:31:24.959Z,48.17
2022-07-29T13:33:51.341Z,48.11
2022-07-29T13:36:17.735Z,48.16
2022-07-29T13:38:44.150Z,48.16
2022-07-29T13:41:10.531Z,48.24
2022-07-29T13:43:36.921Z,48.08
2022-07-29T13:46:03.372Z,48.04
2022-07-29T13:48:29.691Z,48.02
2022-07-29T13:50:56.077Z,47.93
2022-07-29T13:53:26.772Z,47.94
2022-07-29T13:55:48.929Z,47.85
2022-07-29T13:58:15.314Z,47.84
2022-07-29T14:00:41.696Z,47.87
2022-07-29T14:03:08.096Z,48.07
2022-07-29T14:05:34.540Z,47.93
2022-07-29T14:08:00.949Z,47.93
2022-07-29T14:10:27.378Z,47.86
2022-07-29T14:12:53.757Z,47.76
2022-07-29T14:15:22.729Z,47.64
2022-07-29T14:17:49.136Z,47.59
2022-07-29T14:20:15.518Z,47.65
2022-07-29T14:22:42.547Z,47.49
2022-07-29T14:25:14.232Z,47.49
2022-07-29T14:27:35.084Z,47.45
2022-07-29T14:30:01.283Z,47.42
2022-07-29T14:32:27.681Z,47.33
2022-07-29T14:34:54.067Z,47.43
2022-07-29T14:37:20.453Z,47.59
2022-07-29T14:39:46.867Z,47.34
2022-07-29T14:42:13.254Z,47.30
2022-07-29T14:44:41.597Z,47.25
2022-07-29T14:47:08.083Z,47.53
2022-07-29T14:49:32.491Z,47.20
2022-07-29T14:51:59.146Z,47.23
2022-07-29T14:54:25.254Z,47.30
2022-07-29T14:56:51.664Z,47.17
2022-07-29T14:59:18.051Z,47.15
2022-07-29T15:01:44.429Z,47.04
2022-07-29T15:04:10.816Z,47.07
2022-07-29T15:06:37.188Z,47.27
2022-07-29T15:09:03.580Z,47.24
2022-07-29T15:11:29.960Z,47.08
2022-07-29T15:13:56.346Z,47.05
2022-07-29T15:16:22.745Z,47.13
2022-07-29T15:18:49.116Z,47.06
2022-07-29T15:21:15.504Z,47.13
2022-07-29T15:23:41.889Z,47.00
2022-07-29T15:26:08.294Z,46.88
2022-07-29T15:28:34.680Z,46.87
2022-07-29T15:31:01.092Z,46.92
2022-07-29T15:33:27.482Z,46.93
2022-07-29T15:38:29.198Z,46.89
2022-07-29T15:40:55.512Z,47.01
2022-07-29T15:43:21.900Z,46.90
2022-07-29T15:45:48.361Z,46.91
2022-07-29T15:48:15.059Z,46.93
2022-07-29T15:50:41.207Z,46.76
2022-07-29T15:53:07.583Z,46.63
2022-07-29T15:55:34.076Z,46.66
2022-07-29T15:58:00.849Z,46.68
2022-07-29T16:00:26.876Z,46.63
2022-07-29T16:02:53.282Z,46.59
2022-07-29T16:05:19.647Z,46.63
2022-07-29T16:07:46.967Z,46.58
2022-07-29T16:10:12.403Z,46.54
2022-07-29T16:12:41.767Z,46.55
2022-07-29T16:15:10.157Z,46.49
2022-07-29T16:17:34.532Z,46.47
2022-07-29T16:20:00.939Z,46.33
2022-07-29T16:22:27.297Z,46.27
2022-07-29T16:24:53.674Z,46.37
2022-07-29T16:27:20.061Z,46.35
2022-07-29T16:29:46.439Z,46.33
2022-07-29T16:32:12.824Z,46.27
2022-07-29T16:34:39.233Z,46.34
2022-07-29T16:37:05.918Z,46.36
2022-07-29T16:39:32.029Z,46.26
2022-07-29T16:42:01.477Z,46.23
2022-07-29T16:44:25.122Z,46.15
2022-07-29T16:46:51.222Z,46.17
2022-07-29T16:49:19.359Z,46.04
2022-07-29T16:51:43.987Z,46.03
2022-07-29T16:54:10.363Z,46.17
2022-07-29T16:56:38.806Z,46.15
2022-07-29T16:59:03.991Z,46.11
2022-07-29T17:01:30.447Z,45.98
2022-07-29T17:03:59.951Z,45.80
2022-07-29T17:06:23.124Z,45.76
2022-07-29T17:08:49.535Z,45.68
2022-07-29T17:11:15.913Z,45.62
2022-07-29T17:13:42.327Z,45.39
2022-07-29T17:16:08.732Z,45.37
2022-07-29T17:18:35.129Z,45.38
2022-07-29T17:21:01.517Z,45.27
2022-07-29T17:23:27.935Z,45.19
2022-07-29T17:25:54.276Z,45.01
2022-07-29T17:28:20.674Z,44.91
2022-07-29T17:30:47.043Z,44.76
2022-07-29T17:33:13.431Z,44.82
2022-07-29T17:35:39.838Z,44.82
2022-07-29T17:38:06.193Z,44.98
2022-07-29T17:40:32.570Z,45.13
2022-07-29T17:42:58.960Z,45.17
2022-07-29T17:45:25.335Z,45.03
2022-07-29T17:47:51.853Z,45.00
2022-07-29T17:50:18.233Z,45.02
2022-07-29T17:52:44.616Z,44.99
2022-07-29T17:55:10.996Z,45.02
2022-07-29T17:57:37.383Z,44.95
2022-07-29T18:00:03.766Z,44.97
2022-07-29T18:02:30.320Z,44.94
2022-07-29T18:04:56.633Z,44.82
2022-07-29T18:07:23.049Z,44.69
2022-07-29T18:09:49.425Z,44.61
2022-07-29T18:12:15.907Z,44.65
2022-07-29T18:14:42.416Z,44.52
2022-07-29T18:17:08.775Z,44.43
2022-07-29T18:19:35.153Z,44.44
2022-07-29T18:22:05.428Z,44.43
2022-07-29T18:24:27.940Z,44.46
2022-07-29T18:26:54.339Z,44.41
2022-07-29T18:29:20.717Z,44.35
2022-07-29T18:31:49.739Z,44.32
2022-07-29T18:34:16.082Z,44.27
2022-07-29T18:36:42.497Z,44.26
2022-07-29T18:39:08.869Z,44.23
2022-07-29T18:41:35.330Z,44.21
2022-07-29T18:44:01.705Z,44.21
2022-07-29T18:46:28.117Z,44.16
2022-07-29T18:48:54.542Z,44.12
2022-07-29T18:51:20.868Z,44.06
2022-07-29T18:53:47.245Z,44.00
2022-07-29T18:56:13.634Z,43.98
2022-07-29T18:58:40.039Z,43.92
2022-07-29T19:01:06.429Z,43.92
2022-07-29T19:03:32.818Z,43.87
2022-07-29T19:05:59.227Z,43.84
2022-07-29T19:08:27.591Z,43.85
2022-07-29T19:10:52.120Z,43.79
2022-07-29T19:13:18.501Z,43.79
2022-07-29T19:15:44.900Z,43.76
2022-07-29T19:18:11.284Z,43.72
2022-07-29T19:20:37.672Z,43.72
2022-07-29T19:23:04.056Z,43.72
2022-07-29T19:25:30.516Z,43.70
2022-07-29T19:27:56.963Z,43.69
2022-07-29T19:30:23.348Z,43.69
2022-07-29T19:32:49.717Z,43.74
2022-07-29T19:35:16.100Z,43.66
2022-07-29T19:37:43.460Z,43.68
2022-07-29T19:40:08.877Z,43.67
2022-07-29T19:42:35.279Z,43.65
2022-07-29T19:45:01.986Z,43.65
2022-07-29T19:47:28.395Z,43.61
2022-07-29T19:49:54.757Z,43.66
2022-07-29T19:52:21.145Z,43.66
2022-07-29T19:54:47.519Z,43.62
2022-07-29T19:57:14.147Z,43.62
2022-07-29T19:59:40.285Z,43.59
2022-07-29T20:02:06.717Z,43.61
2022-07-29T20:04:33.156Z,43.62
2022-07-29T20:06:59.764Z,43.67
2022-07-29T20:09:25.814Z,43.69
2022-07-29T20:11:52.225Z,43.67
2022-07-29T20:14:18.604Z,43.65
2022-07-29T20:16:45.015Z,43.72
2022-07-29T20:19:11.401Z,43.61
2022-07-29T20:21:37.792Z,43.67
2022-07-29T20:24:04.204Z,43.65
2022-07-29T20:26:30.598Z,43.67
2022-07-29T20:28:56.990Z,43.80
2022-07-29T20:31:23.462Z,43.85
2022-07-29T20:33:51.233Z,43.84
2022-07-29T20:36:16.224Z,43.81
2022-07-29T20:38:42.629Z,43.79
2022-07-29T20:41:08.993Z,43.66
2022-07-29T20:43:35.933Z,43.82
2022-07-29T20:46:01.821Z,43.90
2022-07-29T20:48:28.150Z,44.01
2022-07-29T20:50:54.534Z,43.93
2022-07-29T20:53:20.950Z,44.01
2022-07-29T20:55:47.338Z,43.98
2022-07-29T20:58:13.729Z,44.01
2022-07-29T21:00:40.111Z,44.01
2022-07-29T21:03:06.548Z,44.01
2022-07-29T21:05:32.879Z,43.94
2022-07-29T21:07:59.259Z,43.97
2022-07-29T21:10:25.654Z,43.91
2022-07-29T21:12:52.025Z,43.91
2022-07-29T21:15:18.422Z,43.92
2022-07-29T21:17:44.808Z,43.96
2022-07-29T21:20:11.200Z,43.87
2022-07-29T21:22:37.588Z,43.82
2022-07-29T21:25:03.976Z,43.90
2022-07-29T21:27:30.444Z,43.92
2022-07-29T21:29:56.832Z,43.90
2022-07-29T21:32:30.189Z,43.88
2022-07-29T21:34:49.646Z,43.79
2022-07-29T21:37:16.037Z,43.78
2022-07-29T21:39:42.551Z,43.79
2022-07-29T21:42:09.044Z,43.76
2022-07-29T21:44:35.456Z,43.86
2022-07-29T21:47:02.287Z,43.85
2022-07-29T21:49:28.455Z,43.98
2022-07-29T21:51:54.754Z,43.98
2022-07-29T21:54:21.135Z,44.06
2022-07-29T21:56:51.158Z,44.04
2022-07-29T21:59:14.894Z,44.13
2022-07-29T22:01:40.360Z,44.13
2022-07-29T22:04:06.740Z,44.07
2022-07-29T22:06:33.117Z,44.01
2022-07-29T22:08:59.512Z,43.89
2022-07-29T22:11:25.887Z,43.85
2022-07-29T22:13:52.271Z,43.80
2022-07-29T22:16:18.698Z,43.80
2022-07-29T22:18:45.141Z,43.69
2022-07-29T22:21:11.572Z,43.65
2022-07-29T22:23:37.968Z,43.66
2022-07-29T22:26:04.371Z,43.66
2022-07-29T22:28:30.897Z,43.66
2022-07-29T22:30:57.383Z,43.65
2022-07-29T22:33:23.707Z,43.63
2022-07-29T22:35:50.093Z,43.63
2022-07-29T22:38:16.480Z,43.68
2022-07-29T22:40:42.864Z,43.68
2022-07-29T22:43:09.255Z,43.71
2022-07-29T22:45:35.633Z,43.60
2022-07-29T22:48:02.017Z,43.58
2022-07-29T22:50:28.396Z,43.69
2022-07-29T22:52:55.827Z,43.67
2022-07-29T22:55:22.216Z,43.63
2022-07-29T22:57:48.606Z,43.68
2022-07-29T23:00:15.138Z,43.64
2022-07-29T23:02:41.783Z,43.59
2022-07-29T23:05:07.940Z,43.68
2022-07-29T23:07:34.419Z,43.59
2022-07-29T23:10:00.844Z,43.58
2022-07-29T23:12:27.208Z,43.60
2022-07-29T23:14:53.593Z,43.55
2022-07-29T23:17:21.247Z,43.54
2022-07-29T23:19:46.393Z,43.56
2022-07-29T23:22:12.778Z,43.59
2022-07-29T23:24:39.166Z,43.63
2022-07-29T23:27:05.554Z,43.58
2022-07-29T23:29:36.345Z,43.63
2022-07-29T23:31:58.464Z,43.63
2022-07-29T23:34:24.879Z,43.63
2022-07-29T23:36:51.266Z,43.63
2022-07-29T23:39:17.644Z,43.64
2022-07-29T23:41:44.041Z,43.63
2022-07-29T23:44:10.447Z,43.60
2022-07-29T23:46:36.877Z,43.61
2022-07-29T23:49:03.287Z,43.58
2022-07-29T23:51:29.631Z,43.59
2022-07-29T23:53:56.023Z,43.64
2022-07-29T23:56:22.399Z,43.63
2022-07-29T23:58:48.805Z,43.57
